sensor_id;sensor_type;location;lat;lon;timestamp;P1;durP1;ratioP1;P2;durP2;ratioP2
48550;SDS011;34397;51.176;6.738;2023-06-26T00:02:11;4.55;;;4.00;;
48550;SDS011;34397;51.176;6.738;2023-06-26T00:04:43;5.55;;;4.07;;
48550;SDS011;34397;51.176;6.738;2023-06-26T00:09:47;4.80;;;4.40;;
48550;SDS011;34397;51.176;6.738;2023-06-26T00:12:18;5.45;;;4.15;;
48550;SDS011;34397;51.176;6.738;2023-06-26T00:14:51;4.68;;;4.18;;
48550;SDS011;34397;51.176;6.738;2023-06-26T00:17:23;4.85;;;4.38;;
48550;SDS011;34397;51.176;6.738;2023-06-26T00:19:55;4.75;;;4.20;;
48550;SDS011;34397;51.176;6.738;2023-06-26T00:22:27;4.68;;;4.20;;
48550;SDS011;34397;51.176;6.738;2023-06-26T00:24:59;4.82;;;4.28;;
48550;SDS011;34397;51.176;6.738;2023-06-26T00:27:31;5.20;;;4.70;;
48550;SDS011;34397;51.176;6.738;2023-06-26T00:30:04;5.25;;;4.03;;
48550;SDS011;34397;51.176;6.738;2023-06-26T00:32:37;5.20;;;4.70;;
48550;SDS011;34397;51.176;6.738;2023-06-26T00:35:08;6.75;;;4.70;;
48550;SDS011;34397;51.176;6.738;2023-06-26T00:37:40;6.07;;;4.53;;
48550;SDS011;34397;51.176;6.738;2023-06-26T00:40:12;4.55;;;4.05;;
48550;SDS011;34397;51.176;6.738;2023-06-26T00:42:44;4.35;;;3.95;;
48550;SDS011;34397;51.176;6.738;2023-06-26T00:45:17;4.45;;;4.05;;
48550;SDS011;34397;51.176;6.738;2023-06-26T00:47:49;6.07;;;4.40;;
48550;SDS011;34397;51.176;6.738;2023-06-26T00:50:21;4.65;;;4.03;;
48550;SDS011;34397;51.176;6.738;2023-06-26T00:55:30;4.75;;;4.05;;
48550;SDS011;34397;51.176;6.738;2023-06-26T00:58:02;5.28;;;4.30;;
48550;SDS011;34397;51.176;6.738;2023-06-26T01:00:35;4.63;;;4.20;;
48550;SDS011;34397;51.176;6.738;2023-06-26T01:03:07;5.38;;;4.15;;
48550;SDS011;34397;51.176;6.738;2023-06-26T01:05:39;5.38;;;3.88;;
48550;SDS011;34397;51.176;6.738;2023-06-26T01:08:11;5.80;;;4.53;;
48550;SDS011;34397;51.176;6.738;2023-06-26T01:10:43;6.35;;;4.20;;
48550;SDS011;34397;51.176;6.738;2023-06-26T01:13:16;4.93;;;4.43;;
48550;SDS011;34397;51.176;6.738;2023-06-26T01:15:49;4.97;;;4.18;;
48550;SDS011;34397;51.176;6.738;2023-06-26T01:18:22;5.47;;;4.25;;
48550;SDS011;34397;51.176;6.738;2023-06-26T01:20:55;4.40;;;4.00;;
48550;SDS011;34397;51.176;6.738;2023-06-26T01:23:31;5.90;;;4.55;;
48550;SDS011;34397;51.176;6.738;2023-06-26T01:26:13;4.55;;;4.07;;
48550;SDS011;34397;51.176;6.738;2023-06-26T01:28:48;4.45;;;4.05;;
48550;SDS011;34397;51.176;6.738;2023-06-26T01:31:22;6.22;;;4.25;;
48550;SDS011;34397;51.176;6.738;2023-06-26T01:33:55;5.10;;;4.60;;
48550;SDS011;34397;51.176;6.738;2023-06-26T01:36:28;4.97;;;4.18;;
48550;SDS011;34397;51.176;6.738;2023-06-26T01:39:00;5.57;;;4.30;;
48550;SDS011;34397;51.176;6.738;2023-06-26T01:41:33;4.57;;;3.88;;
48550;SDS011;34397;51.176;6.738;2023-06-26T01:44:11;6.18;;;4.55;;
48550;SDS011;34397;51.176;6.738;2023-06-26T01:46:54;7.32;;;4.50;;
48550;SDS011;34397;51.176;6.738;2023-06-26T01:49:38;5.88;;;4.35;;
48550;SDS011;34397;51.176;6.738;2023-06-26T01:52:19;5.00;;;4.45;;
48550;SDS011;34397;51.176;6.738;2023-06-26T01:54:58;5.22;;;4.47;;
48550;SDS011;34397;51.176;6.738;2023-06-26T01:57:36;5.82;;;4.22;;
48550;SDS011;34397;51.176;6.738;2023-06-26T02:00:10;5.32;;;4.68;;
48550;SDS011;34397;51.176;6.738;2023-06-26T02:02:44;5.65;;;4.20;;
48550;SDS011;34397;51.176;6.738;2023-06-26T02:05:16;5.15;;;4.20;;
48550;SDS011;34397;51.176;6.738;2023-06-26T02:07:48;4.85;;;4.28;;
48550;SDS011;34397;51.176;6.738;2023-06-26T02:10:21;7.00;;;4.50;;
48550;SDS011;34397;51.176;6.738;2023-06-26T02:12:54;4.55;;;3.92;;
48550;SDS011;34397;51.176;6.738;2023-06-26T02:15:26;4.95;;;4.40;;
48550;SDS011;34397;51.176;6.738;2023-06-26T02:17:57;4.95;;;4.43;;
48550;SDS011;34397;51.176;6.738;2023-06-26T02:20:29;4.65;;;4.15;;
48550;SDS011;34397;51.176;6.738;2023-06-26T02:23:02;5.10;;;3.95;;
48550;SDS011;34397;51.176;6.738;2023-06-26T02:25:33;4.88;;;4.10;;
48550;SDS011;34397;51.176;6.738;2023-06-26T02:28:07;5.82;;;4.50;;
48550;SDS011;34397;51.176;6.738;2023-06-26T02:30:38;4.57;;;4.10;;
48550;SDS011;34397;51.176;6.738;2023-06-26T02:33:10;5.63;;;4.60;;
48550;SDS011;34397;51.176;6.738;2023-06-26T02:35:42;7.05;;;4.55;;
48550;SDS011;34397;51.176;6.738;2023-06-26T02:38:14;4.32;;;3.85;;
48550;SDS011;34397;51.176;6.738;2023-06-26T02:40:45;6.13;;;4.55;;
48550;SDS011;34397;51.176;6.738;2023-06-26T02:43:19;7.95;;;4.70;;
48550;SDS011;34397;51.176;6.738;2023-06-26T02:45:50;8.10;;;5.13;;
48550;SDS011;34397;51.176;6.738;2023-06-26T02:48:22;6.10;;;4.57;;
48550;SDS011;34397;51.176;6.738;2023-06-26T02:50:54;4.65;;;4.13;;
48550;SDS011;34397;51.176;6.738;2023-06-26T02:53:26;6.13;;;4.22;;
48550;SDS011;34397;51.176;6.738;2023-06-26T02:55:58;4.35;;;3.95;;
48550;SDS011;34397;51.176;6.738;2023-06-26T02:58:31;4.57;;;4.10;;
48550;SDS011;34397;51.176;6.738;2023-06-26T03:01:02;5.35;;;4.10;;
48550;SDS011;34397;51.176;6.738;2023-06-26T03:03:34;5.22;;;3.92;;
48550;SDS011;34397;51.176;6.738;2023-06-26T03:06:10;7.05;;;4.32;;
48550;SDS011;34397;51.176;6.738;2023-06-26T03:08:42;6.25;;;4.32;;
48550;SDS011;34397;51.176;6.738;2023-06-26T03:11:14;6.70;;;4.35;;
48550;SDS011;34397;51.176;6.738;2023-06-26T03:13:47;4.95;;;4.45;;
48550;SDS011;34397;51.176;6.738;2023-06-26T03:16:18;5.82;;;4.30;;
48550;SDS011;34397;51.176;6.738;2023-06-26T03:18:50;5.65;;;4.38;;
48550;SDS011;34397;51.176;6.738;2023-06-26T03:21:22;5.82;;;4.38;;
48550;SDS011;34397;51.176;6.738;2023-06-26T03:23:54;6.07;;;4.57;;
48550;SDS011;34397;51.176;6.738;2023-06-26T03:26:26;5.68;;;4.38;;
48550;SDS011;34397;51.176;6.738;2023-06-26T03:28:59;5.53;;;4.55;;
48550;SDS011;34397;51.176;6.738;2023-06-26T03:31:31;5.30;;;4.28;;
48550;SDS011;34397;51.176;6.738;2023-06-26T03:34:03;5.88;;;4.30;;
48550;SDS011;34397;51.176;6.738;2023-06-26T03:36:35;4.93;;;4.00;;
48550;SDS011;34397;51.176;6.738;2023-06-26T03:39:06;6.68;;;4.50;;
48550;SDS011;34397;51.176;6.738;2023-06-26T03:41:38;5.38;;;4.45;;
48550;SDS011;34397;51.176;6.738;2023-06-26T03:44:11;9.07;;;4.35;;
48550;SDS011;34397;51.176;6.738;2023-06-26T03:46:43;5.22;;;4.25;;
48550;SDS011;34397;51.176;6.738;2023-06-26T03:49:15;4.35;;;3.90;;
48550;SDS011;34397;51.176;6.738;2023-06-26T03:51:47;5.60;;;4.07;;
48550;SDS011;34397;51.176;6.738;2023-06-26T03:54:19;6.13;;;4.65;;
48550;SDS011;34397;51.176;6.738;2023-06-26T03:56:51;5.07;;;4.05;;
48550;SDS011;34397;51.176;6.738;2023-06-26T03:59:24;6.28;;;4.18;;
48550;SDS011;34397;51.176;6.738;2023-06-26T04:01:56;5.18;;;4.00;;
48550;SDS011;34397;51.176;6.738;2023-06-26T04:04:27;8.35;;;4.63;;
48550;SDS011;34397;51.176;6.738;2023-06-26T04:06:59;5.35;;;3.85;;
48550;SDS011;34397;51.176;6.738;2023-06-26T04:09:32;6.43;;;4.72;;
48550;SDS011;34397;51.176;6.738;2023-06-26T04:12:04;6.88;;;4.00;;
48550;SDS011;34397;51.176;6.738;2023-06-26T04:14:38;5.22;;;4.40;;
48550;SDS011;34397;51.176;6.738;2023-06-26T04:17:10;7.68;;;3.95;;
48550;SDS011;34397;51.176;6.738;2023-06-26T04:19:42;5.30;;;4.03;;
48550;SDS011;34397;51.176;6.738;2023-06-26T04:22:14;4.05;;;3.65;;
48550;SDS011;34397;51.176;6.738;2023-06-26T04:24:46;5.55;;;4.43;;
48550;SDS011;34397;51.176;6.738;2023-06-26T04:27:17;7.13;;;4.13;;
48550;SDS011;34397;51.176;6.738;2023-06-26T04:29:51;7.00;;;3.80;;
48550;SDS011;34397;51.176;6.738;2023-06-26T04:32:22;6.03;;;3.70;;
48550;SDS011;34397;51.176;6.738;2023-06-26T04:34:54;7.22;;;4.75;;
48550;SDS011;34397;51.176;6.738;2023-06-26T04:37:26;5.20;;;3.80;;
48550;SDS011;34397;51.176;6.738;2023-06-26T04:39:58;4.93;;;3.78;;
48550;SDS011;34397;51.176;6.738;2023-06-26T04:42:29;5.03;;;4.00;;
48550;SDS011;34397;51.176;6.738;2023-06-26T04:45:03;7.38;;;3.97;;
48550;SDS011;34397;51.176;6.738;2023-06-26T04:47:36;6.10;;;3.50;;
48550;SDS011;34397;51.176;6.738;2023-06-26T04:50:09;6.80;;;4.20;;
48550;SDS011;34397;51.176;6.738;2023-06-26T04:52:41;3.85;;;3.45;;
48550;SDS011;34397;51.176;6.738;2023-06-26T04:55:13;6.30;;;3.88;;
48550;SDS011;34397;51.176;6.738;2023-06-26T04:57:45;4.97;;;3.80;;
48550;SDS011;34397;51.176;6.738;2023-06-26T05:00:18;5.35;;;3.95;;
48550;SDS011;34397;51.176;6.738;2023-06-26T05:02:50;8.57;;;3.58;;
48550;SDS011;34397;51.176;6.738;2023-06-26T05:05:29;5.38;;;3.72;;
48550;SDS011;34397;51.176;6.738;2023-06-26T05:08:12;4.32;;;3.58;;
48550;SDS011;34397;51.176;6.738;2023-06-26T05:10:45;3.75;;;3.38;;
48550;SDS011;34397;51.176;6.738;2023-06-26T05:13:17;6.43;;;3.97;;
48550;SDS011;34397;51.176;6.738;2023-06-26T05:15:51;4.75;;;4.00;;
48550;SDS011;34397;51.176;6.738;2023-06-26T05:18:23;4.18;;;3.70;;
48550;SDS011;34397;51.176;6.738;2023-06-26T05:20:55;4.97;;;4.32;;
48550;SDS011;34397;51.176;6.738;2023-06-26T05:23:28;4.43;;;3.97;;
48550;SDS011;34397;51.176;6.738;2023-06-26T05:26:02;5.93;;;4.28;;
48550;SDS011;34397;51.176;6.738;2023-06-26T05:28:35;4.85;;;3.85;;
48550;SDS011;34397;51.176;6.738;2023-06-26T05:31:09;5.30;;;4.50;;
48550;SDS011;34397;51.176;6.738;2023-06-26T05:33:43;5.43;;;4.25;;
48550;SDS011;34397;51.176;6.738;2023-06-26T05:36:15;4.65;;;4.20;;
48550;SDS011;34397;51.176;6.738;2023-06-26T05:38:49;5.85;;;4.03;;
48550;SDS011;34397;51.176;6.738;2023-06-26T05:41:22;4.45;;;3.67;;
48550;SDS011;34397;51.176;6.738;2023-06-26T05:43:55;6.20;;;3.70;;
48550;SDS011;34397;51.176;6.738;2023-06-26T05:46:28;6.85;;;4.00;;
48550;SDS011;34397;51.176;6.738;2023-06-26T05:49:00;5.30;;;3.70;;
48550;SDS011;34397;51.176;6.738;2023-06-26T05:54:04;6.25;;;3.90;;
48550;SDS011;34397;51.176;6.738;2023-06-26T05:56:37;4.43;;;3.83;;
48550;SDS011;34397;51.176;6.738;2023-06-26T05:59:09;5.68;;;3.53;;
48550;SDS011;34397;51.176;6.738;2023-06-26T06:01:43;4.63;;;3.47;;
48550;SDS011;34397;51.176;6.738;2023-06-26T06:04:15;6.28;;;3.30;;
48550;SDS011;34397;51.176;6.738;2023-06-26T06:06:47;9.65;;;3.50;;
48550;SDS011;34397;51.176;6.738;2023-06-26T06:09:19;5.60;;;3.35;;
48550;SDS011;34397;51.176;6.738;2023-06-26T06:11:51;6.43;;;3.47;;
48550;SDS011;34397;51.176;6.738;2023-06-26T06:14:22;6.85;;;3.60;;
48550;SDS011;34397;51.176;6.738;2023-06-26T06:16:56;5.93;;;3.25;;
48550;SDS011;34397;51.176;6.738;2023-06-26T06:19:27;5.00;;;3.08;;
48550;SDS011;34397;51.176;6.738;2023-06-26T06:21:59;4.88;;;3.47;;
48550;SDS011;34397;51.176;6.738;2023-06-26T06:24:31;4.28;;;3.35;;
48550;SDS011;34397;51.176;6.738;2023-06-26T06:27:03;7.95;;;3.70;;
48550;SDS011;34397;51.176;6.738;2023-06-26T06:29:35;8.13;;;3.42;;
48550;SDS011;34397;51.176;6.738;2023-06-26T06:32:08;5.55;;;2.97;;
48550;SDS011;34397;51.176;6.738;2023-06-26T06:34:40;7.05;;;3.35;;
48550;SDS011;34397;51.176;6.738;2023-06-26T06:37:11;6.28;;;3.28;;
48550;SDS011;34397;51.176;6.738;2023-06-26T06:39:43;9.43;;;3.88;;
48550;SDS011;34397;51.176;6.738;2023-06-26T06:42:15;5.20;;;3.40;;
48550;SDS011;34397;51.176;6.738;2023-06-26T06:44:47;5.90;;;2.90;;
48550;SDS011;34397;51.176;6.738;2023-06-26T06:47:20;5.72;;;3.20;;
48550;SDS011;34397;51.176;6.738;2023-06-26T06:49:52;6.95;;;3.45;;
48550;SDS011;34397;51.176;6.738;2023-06-26T06:52:24;7.28;;;3.38;;
48550;SDS011;34397;51.176;6.738;2023-06-26T06:54:57;6.80;;;3.40;;
48550;SDS011;34397;51.176;6.738;2023-06-26T06:57:29;7.63;;;3.10;;
48550;SDS011;34397;51.176;6.738;2023-06-26T07:00:06;8.95;;;3.15;;
48550;SDS011;34397;51.176;6.738;2023-06-26T07:02:42;6.20;;;3.50;;
48550;SDS011;34397;51.176;6.738;2023-06-26T07:05:15;5.35;;;3.10;;
48550;SDS011;34397;51.176;6.738;2023-06-26T07:07:47;6.25;;;3.35;;
48550;SDS011;34397;51.176;6.738;2023-06-26T07:10:19;6.25;;;2.85;;
48550;SDS011;34397;51.176;6.738;2023-06-26T07:12:51;10.15;;;3.30;;
48550;SDS011;34397;51.176;6.738;2023-06-26T07:15:23;4.65;;;2.65;;
48550;SDS011;34397;51.176;6.738;2023-06-26T07:17:56;6.25;;;2.90;;
48550;SDS011;34397;51.176;6.738;2023-06-26T07:20:28;6.95;;;2.85;;
48550;SDS011;34397;51.176;6.738;2023-06-26T07:22:59;7.60;;;2.83;;
48550;SDS011;34397;51.176;6.738;2023-06-26T07:25:31;10.48;;;3.30;;
48550;SDS011;34397;51.176;6.738;2023-06-26T07:28:06;4.50;;;2.65;;
48550;SDS011;34397;51.176;6.738;2023-06-26T07:30:41;6.72;;;2.88;;
48550;SDS011;34397;51.176;6.738;2023-06-26T07:33:14;7.30;;;3.00;;
48550;SDS011;34397;51.176;6.738;2023-06-26T07:35:46;7.95;;;3.10;;
48550;SDS011;34397;51.176;6.738;2023-06-26T07:38:18;7.63;;;3.03;;
48550;SDS011;34397;51.176;6.738;2023-06-26T07:40:50;5.43;;;2.67;;
48550;SDS011;34397;51.176;6.738;2023-06-26T07:43:21;5.47;;;2.95;;
48550;SDS011;34397;51.176;6.738;2023-06-26T07:45:53;8.63;;;3.30;;
48550;SDS011;34397;51.176;6.738;2023-06-26T07:48:29;5.10;;;3.10;;
48550;SDS011;34397;51.176;6.738;2023-06-26T07:51:01;5.68;;;3.67;;
48550;SDS011;34397;51.176;6.738;2023-06-26T07:53:33;6.97;;;3.08;;
48550;SDS011;34397;51.176;6.738;2023-06-26T07:56:05;5.90;;;3.10;;
48550;SDS011;34397;51.176;6.738;2023-06-26T07:58:37;5.53;;;2.90;;
48550;SDS011;34397;51.176;6.738;2023-06-26T08:01:09;7.47;;;3.20;;
48550;SDS011;34397;51.176;6.738;2023-06-26T08:03:42;11.60;;;3.58;;
48550;SDS011;34397;51.176;6.738;2023-06-26T08:06:14;5.78;;;3.10;;
48550;SDS011;34397;51.176;6.738;2023-06-26T08:08:46;5.30;;;3.03;;
48550;SDS011;34397;51.176;6.738;2023-06-26T08:11:18;5.30;;;3.10;;
48550;SDS011;34397;51.176;6.738;2023-06-26T08:13:50;7.00;;;3.17;;
48550;SDS011;34397;51.176;6.738;2023-06-26T08:16:22;11.50;;;3.28;;
48550;SDS011;34397;51.176;6.738;2023-06-26T08:18:55;6.13;;;3.30;;
48550;SDS011;34397;51.176;6.738;2023-06-26T08:21:27;7.97;;;2.88;;
48550;SDS011;34397;51.176;6.738;2023-06-26T08:26:30;7.78;;;3.35;;
48550;SDS011;34397;51.176;6.738;2023-06-26T08:29:02;7.28;;;3.20;;
48550;SDS011;34397;51.176;6.738;2023-06-26T08:31:38;8.68;;;2.97;;
48550;SDS011;34397;51.176;6.738;2023-06-26T08:34:11;9.95;;;3.60;;
48550;SDS011;34397;51.176;6.738;2023-06-26T08:36:43;7.43;;;2.95;;
48550;SDS011;34397;51.176;6.738;2023-06-26T08:39:15;5.90;;;3.10;;
48550;SDS011;34397;51.176;6.738;2023-06-26T08:41:48;7.82;;;3.03;;
48550;SDS011;34397;51.176;6.738;2023-06-26T08:44:20;7.50;;;3.13;;
48550;SDS011;34397;51.176;6.738;2023-06-26T08:46:54;6.07;;;3.05;;
48550;SDS011;34397;51.176;6.738;2023-06-26T08:49:30;8.32;;;3.92;;
48550;SDS011;34397;51.176;6.738;2023-06-26T08:52:10;6.00;;;3.22;;
48550;SDS011;34397;51.176;6.738;2023-06-26T08:54:49;7.82;;;3.17;;
48550;SDS011;34397;51.176;6.738;2023-06-26T08:57:26;7.05;;;2.90;;
48550;SDS011;34397;51.176;6.738;2023-06-26T09:00:00;13.13;;;3.28;;
48550;SDS011;34397;51.176;6.738;2023-06-26T09:02:33;7.85;;;2.90;;
48550;SDS011;34397;51.176;6.738;2023-06-26T09:07:38;7.03;;;3.10;;
48550;SDS011;34397;51.176;6.738;2023-06-26T09:10:10;6.65;;;2.55;;
48550;SDS011;34397;51.176;6.738;2023-06-26T09:12:45;6.72;;;3.05;;
48550;SDS011;34397;51.176;6.738;2023-06-26T09:15:19;9.98;;;3.15;;
48550;SDS011;34397;51.176;6.738;2023-06-26T09:17:51;5.78;;;3.13;;
48550;SDS011;34397;51.176;6.738;2023-06-26T09:20:30;5.93;;;3.00;;
48550;SDS011;34397;51.176;6.738;2023-06-26T09:23:03;5.68;;;2.70;;
48550;SDS011;34397;51.176;6.738;2023-06-26T09:25:37;6.30;;;3.03;;
48550;SDS011;34397;51.176;6.738;2023-06-26T09:28:11;6.60;;;2.90;;
48550;SDS011;34397;51.176;6.738;2023-06-26T09:30:43;7.35;;;2.88;;
48550;SDS011;34397;51.176;6.738;2023-06-26T09:33:17;7.90;;;2.80;;
48550;SDS011;34397;51.176;6.738;2023-06-26T09:35:52;6.90;;;2.80;;
48550;SDS011;34397;51.176;6.738;2023-06-26T09:38:24;8.93;;;3.20;;
48550;SDS011;34397;51.176;6.738;2023-06-26T09:40:56;8.93;;;2.72;;
48550;SDS011;34397;51.176;6.738;2023-06-26T09:43:28;6.85;;;2.55;;
48550;SDS011;34397;51.176;6.738;2023-06-26T09:46:01;8.60;;;2.78;;
48550;SDS011;34397;51.176;6.738;2023-06-26T09:48:33;6.43;;;2.70;;
48550;SDS011;34397;51.176;6.738;2023-06-26T09:53:37;7.38;;;2.70;;
48550;SDS011;34397;51.176;6.738;2023-06-26T09:58:46;6.82;;;2.38;;
48550;SDS011;34397;51.176;6.738;2023-06-26T10:01:18;6.35;;;2.38;;
48550;SDS011;34397;51.176;6.738;2023-06-26T10:06:24;6.20;;;2.20;;
48550;SDS011;34397;51.176;6.738;2023-06-26T10:09:00;4.47;;;1.90;;
48550;SDS011;34397;51.176;6.738;2023-06-26T10:11:35;3.67;;;1.95;;
48550;SDS011;34397;51.176;6.738;2023-06-26T10:14:12;6.38;;;2.13;;
48550;SDS011;34397;51.176;6.738;2023-06-26T10:16:46;7.72;;;2.05;;
48550;SDS011;34397;51.176;6.738;2023-06-26T10:19:20;5.07;;;2.33;;
48550;SDS011;34397;51.176;6.738;2023-06-26T10:21:57;4.30;;;1.73;;
48550;SDS011;34397;51.176;6.738;2023-06-26T10:24:31;4.55;;;1.98;;
48550;SDS011;34397;51.176;6.738;2023-06-26T10:27:07;3.88;;;2.03;;
48550;SDS011;34397;51.176;6.738;2023-06-26T10:29:46;4.85;;;1.83;;
48550;SDS011;34397;51.176;6.738;2023-06-26T10:32:21;4.80;;;1.52;;
48550;SDS011;34397;51.176;6.738;2023-06-26T10:34:56;2.58;;;1.42;;
48550;SDS011;34397;51.176;6.738;2023-06-26T10:40:21;3.50;;;1.90;;
48550;SDS011;34397;51.176;6.738;2023-06-26T10:43:05;8.02;;;2.00;;
48550;SDS011;34397;51.176;6.738;2023-06-26T10:45:43;3.92;;;1.65;;
48550;SDS011;34397;51.176;6.738;2023-06-26T10:48:18;5.70;;;1.58;;
48550;SDS011;34397;51.176;6.738;2023-06-26T10:50:49;2.95;;;1.55;;
48550;SDS011;34397;51.176;6.738;2023-06-26T10:53:23;3.75;;;1.63;;
48550;SDS011;34397;51.176;6.738;2023-06-26T10:55:58;3.25;;;1.42;;
48550;SDS011;34397;51.176;6.738;2023-06-26T10:58:32;4.70;;;1.48;;
48550;SDS011;34397;51.176;6.738;2023-06-26T11:01:18;4.93;;;1.33;;
48550;SDS011;34397;51.176;6.738;2023-06-26T11:04:03;4.18;;;1.33;;
48550;SDS011;34397;51.176;6.738;2023-06-26T11:06:38;6.07;;;2.55;;
48550;SDS011;34397;51.176;6.738;2023-06-26T11:09:14;3.22;;;1.35;;
48550;SDS011;34397;51.176;6.738;2023-06-26T11:11:55;2.85;;;1.25;;
48550;SDS011;34397;51.176;6.738;2023-06-26T11:14:35;3.22;;;1.10;;
48550;SDS011;34397;51.176;6.738;2023-06-26T11:17:07;2.85;;;1.20;;
48550;SDS011;34397;51.176;6.738;2023-06-26T11:19:45;1.75;;;1.00;;
48550;SDS011;34397;51.176;6.738;2023-06-26T11:22:18;2.33;;;0.82;;
48550;SDS011;34397;51.176;6.738;2023-06-26T11:24:53;1.48;;;0.85;;
48550;SDS011;34397;51.176;6.738;2023-06-26T11:27:30;2.05;;;1.13;;
48550;SDS011;34397;51.176;6.738;2023-06-26T11:30:03;2.13;;;0.80;;
48550;SDS011;34397;51.176;6.738;2023-06-26T11:32:36;2.60;;;1.10;;
48550;SDS011;34397;51.176;6.738;2023-06-26T11:35:08;1.45;;;1.02;;
48550;SDS011;34397;51.176;6.738;2023-06-26T11:37:40;2.55;;;1.20;;
48550;SDS011;34397;51.176;6.738;2023-06-26T11:40:17;2.22;;;1.10;;
48550;SDS011;34397;51.176;6.738;2023-06-26T11:42:49;6.10;;;1.20;;
48550;SDS011;34397;51.176;6.738;2023-06-26T11:45:21;1.25;;;0.93;;
48550;SDS011;34397;51.176;6.738;2023-06-26T11:47:54;1.30;;;0.80;;
48550;SDS011;34397;51.176;6.738;2023-06-26T11:50:26;5.50;;;1.67;;
48550;SDS011;34397;51.176;6.738;2023-06-26T11:52:59;2.47;;;1.05;;
48550;SDS011;34397;51.176;6.738;2023-06-26T11:55:40;2.70;;;1.20;;
48550;SDS011;34397;51.176;6.738;2023-06-26T11:58:13;3.35;;;1.40;;
48550;SDS011;34397;51.176;6.738;2023-06-26T12:03:18;2.00;;;1.25;;
48550;SDS011;34397;51.176;6.738;2023-06-26T12:05:50;2.60;;;1.10;;
48550;SDS011;34397;51.176;6.738;2023-06-26T12:08:22;2.40;;;0.98;;
48550;SDS011;34397;51.176;6.738;2023-06-26T12:10:56;3.05;;;1.08;;
48550;SDS011;34397;51.176;6.738;2023-06-26T12:13:28;2.15;;;1.10;;
48550;SDS011;34397;51.176;6.738;2023-06-26T12:15:59;2.78;;;1.10;;
48550;SDS011;34397;51.176;6.738;2023-06-26T12:18:33;2.53;;;1.05;;
48550;SDS011;34397;51.176;6.738;2023-06-26T12:21:06;1.58;;;0.90;;
48550;SDS011;34397;51.176;6.738;2023-06-26T12:23:38;4.40;;;1.10;;
48550;SDS011;34397;51.176;6.738;2023-06-26T12:26:18;1.75;;;0.90;;
48550;SDS011;34397;51.176;6.738;2023-06-26T12:28:50;2.35;;;0.73;;
48550;SDS011;34397;51.176;6.738;2023-06-26T12:33:54;1.88;;;0.80;;
48550;SDS011;34397;51.176;6.738;2023-06-26T12:36:26;2.10;;;0.80;;
48550;SDS011;34397;51.176;6.738;2023-06-26T12:39:00;1.33;;;0.73;;
48550;SDS011;34397;51.176;6.738;2023-06-26T12:41:34;2.80;;;1.20;;
48550;SDS011;34397;51.176;6.738;2023-06-26T12:44:05;2.03;;;0.90;;
48550;SDS011;34397;51.176;6.738;2023-06-26T12:46:50;2.38;;;0.73;;
48550;SDS011;34397;51.176;6.738;2023-06-26T12:49:30;2.13;;;0.80;;
48550;SDS011;34397;51.176;6.738;2023-06-26T12:52:03;3.65;;;0.95;;
48550;SDS011;34397;51.176;6.738;2023-06-26T12:54:38;1.50;;;0.80;;
48550;SDS011;34397;51.176;6.738;2023-06-26T12:57:13;5.40;;;1.00;;
48550;SDS011;34397;51.176;6.738;2023-06-26T12:59:45;1.95;;;0.75;;
48550;SDS011;34397;51.176;6.738;2023-06-26T13:04:48;1.40;;;0.90;;
48550;SDS011;34397;51.176;6.738;2023-06-26T13:09:55;1.45;;;0.70;;
48550;SDS011;34397;51.176;6.738;2023-06-26T13:12:28;2.40;;;0.90;;
48550;SDS011;34397;51.176;6.738;2023-06-26T13:15:00;1.30;;;0.75;;
48550;SDS011;34397;51.176;6.738;2023-06-26T13:20:04;1.17;;;0.80;;
48550;SDS011;34397;51.176;6.738;2023-06-26T13:22:38;1.73;;;0.80;;
48550;SDS011;34397;51.176;6.738;2023-06-26T13:27:43;2.88;;;0.80;;
48550;SDS011;34397;51.176;6.738;2023-06-26T13:30:15;5.05;;;1.13;;
48550;SDS011;34397;51.176;6.738;2023-06-26T13:32:47;1.38;;;0.90;;
48550;SDS011;34397;51.176;6.738;2023-06-26T13:35:18;1.58;;;0.70;;
48550;SDS011;34397;51.176;6.738;2023-06-26T13:37:50;3.38;;;0.80;;
48550;SDS011;34397;51.176;6.738;2023-06-26T13:42:55;3.30;;;0.93;;
48550;SDS011;34397;51.176;6.738;2023-06-26T13:45:27;1.10;;;0.70;;
48550;SDS011;34397;51.176;6.738;2023-06-26T13:50:30;6.18;;;0.93;;
48550;SDS011;34397;51.176;6.738;2023-06-26T13:53:02;4.10;;;1.00;;
48550;SDS011;34397;51.176;6.738;2023-06-26T13:58:09;2.33;;;0.93;;
48550;SDS011;34397;51.176;6.738;2023-06-26T14:00:43;4.15;;;0.90;;
48550;SDS011;34397;51.176;6.738;2023-06-26T14:03:15;2.25;;;0.80;;
48550;SDS011;34397;51.176;6.738;2023-06-26T14:05:47;1.55;;;0.90;;
48550;SDS011;34397;51.176;6.738;2023-06-26T14:10:51;1.17;;;0.68;;
48550;SDS011;34397;51.176;6.738;2023-06-26T14:15:56;3.65;;;0.90;;
48550;SDS011;34397;51.176;6.738;2023-06-26T14:20:59;2.17;;;0.80;;
48550;SDS011;34397;51.176;6.738;2023-06-26T14:23:34;1.98;;;0.75;;
48550;SDS011;34397;51.176;6.738;2023-06-26T14:28:39;1.90;;;0.80;;
48550;SDS011;34397;51.176;6.738;2023-06-26T14:31:10;3.22;;;0.85;;
48550;SDS011;34397;51.176;6.738;2023-06-26T14:36:14;4.22;;;0.90;;
48550;SDS011;34397;51.176;6.738;2023-06-26T14:41:18;1.00;;;0.75;;
48550;SDS011;34397;51.176;6.738;2023-06-26T14:46:23;4.18;;;1.00;;
48550;SDS011;34397;51.176;6.738;2023-06-26T14:51:27;5.07;;;1.10;;
48550;SDS011;34397;51.176;6.738;2023-06-26T14:56:30;4.88;;;1.08;;
48550;SDS011;34397;51.176;6.738;2023-06-26T15:01:37;5.05;;;0.80;;
48550;SDS011;34397;51.176;6.738;2023-06-26T15:06:41;5.13;;;1.38;;
48550;SDS011;34397;51.176;6.738;2023-06-26T15:11:44;3.55;;;0.80;;
48550;SDS011;34397;51.176;6.738;2023-06-26T15:14:17;3.90;;;0.80;;
48550;SDS011;34397;51.176;6.738;2023-06-26T15:16:49;3.45;;;1.00;;
48550;SDS011;34397;51.176;6.738;2023-06-26T15:19:21;4.03;;;0.82;;
48550;SDS011;34397;51.176;6.738;2023-06-26T15:21:53;3.17;;;0.82;;
48550;SDS011;34397;51.176;6.738;2023-06-26T15:24:24;2.03;;;0.90;;
48550;SDS011;34397;51.176;6.738;2023-06-26T15:26:56;3.65;;;1.08;;
48550;SDS011;34397;51.176;6.738;2023-06-26T15:29:29;2.28;;;0.77;;
48550;SDS011;34397;51.176;6.738;2023-06-26T15:32:01;1.98;;;0.70;;
48550;SDS011;34397;51.176;6.738;2023-06-26T15:34:33;2.88;;;0.82;;
48550;SDS011;34397;51.176;6.738;2023-06-26T15:37:05;1.65;;;0.90;;
48550;SDS011;34397;51.176;6.738;2023-06-26T15:39:37;2.30;;;0.88;;
48550;SDS011;34397;51.176;6.738;2023-06-26T15:42:09;2.10;;;0.73;;
48550;SDS011;34397;51.176;6.738;2023-06-26T15:47:14;9.05;;;0.90;;
48550;SDS011;34397;51.176;6.738;2023-06-26T15:49:46;1.90;;;0.82;;
48550;SDS011;34397;51.176;6.738;2023-06-26T15:52:18;1.20;;;0.77;;
48550;SDS011;34397;51.176;6.738;2023-06-26T15:54:50;2.55;;;0.80;;
48550;SDS011;34397;51.176;6.738;2023-06-26T15:57:22;1.92;;;0.70;;
48550;SDS011;34397;51.176;6.738;2023-06-26T15:59:55;2.45;;;0.73;;
48550;SDS011;34397;51.176;6.738;2023-06-26T16:02:27;2.03;;;0.70;;
48550;SDS011;34397;51.176;6.738;2023-06-26T16:04:59;4.28;;;1.13;;
48550;SDS011;34397;51.176;6.738;2023-06-26T16:07:31;2.00;;;0.80;;
48550;SDS011;34397;51.176;6.738;2023-06-26T16:10:03;2.83;;;0.90;;
48550;SDS011;34397;51.176;6.738;2023-06-26T16:12:35;1.20;;;0.60;;
48550;SDS011;34397;51.176;6.738;2023-06-26T16:15:09;3.70;;;0.93;;
48550;SDS011;34397;51.176;6.738;2023-06-26T16:17:41;2.22;;;0.90;;
48550;SDS011;34397;51.176;6.738;2023-06-26T16:20:13;1.15;;;0.70;;
48550;SDS011;34397;51.176;6.738;2023-06-26T16:22:45;2.00;;;0.85;;
48550;SDS011;34397;51.176;6.738;2023-06-26T16:25:16;1.92;;;0.80;;
48550;SDS011;34397;51.176;6.738;2023-06-26T16:27:48;0.82;;;0.70;;
48550;SDS011;34397;51.176;6.738;2023-06-26T16:30:21;5.32;;;1.08;;
48550;SDS011;34397;51.176;6.738;2023-06-26T16:32:53;1.33;;;0.75;;
48550;SDS011;34397;51.176;6.738;2023-06-26T16:35:26;1.73;;;0.70;;
48550;SDS011;34397;51.176;6.738;2023-06-26T16:37:59;4.05;;;0.90;;
48550;SDS011;34397;51.176;6.738;2023-06-26T16:40:32;2.58;;;0.90;;
48550;SDS011;34397;51.176;6.738;2023-06-26T16:43:04;1.33;;;0.60;;